createdAt,value
2024-04-11T00:01:29.371Z,10.10
2024-04-11T00:03:57.204Z,10.10
2024-04-11T00:06:27.341Z,10.10
2024-04-11T00:08:55.333Z,10.00
2024-04-11T00:11:25.721Z,10.00
2024-04-11T00:13:54.140Z,10.00
2024-04-11T00:16:24.147Z,10.00
2024-04-11T00:18:54.347Z,9.90
2024-04-11T00:21:24.953Z,10.00
2024-04-11T00:23:52.435Z,9.90
2024-04-11T00:26:27.530Z,9.90
2024-04-11T00:28:57.366Z,9.90
2024-04-11T00:31:27.489Z,9.90
2024-04-11T00:34:15.019Z,9.90
2024-04-11T00:36:46.312Z,9.90
2024-04-11T00:39:19.472Z,9.80
2024-04-11T00:41:50.326Z,9.80
2024-04-11T00:44:18.992Z,9.80
2024-04-11T00:46:52.729Z,9.70
2024-04-11T00:49:23.933Z,9.80
2024-04-11T00:51:54.479Z,9.70
2024-04-11T00:54:24.193Z,9.60
2024-04-11T00:56:55.375Z,9.60
2024-04-11T00:59:25.372Z,9.60
2024-04-11T01:01:57.770Z,9.60
2024-04-11T01:04:27.983Z,9.50
2024-04-11T01:07:10.747Z,9.50
2024-04-11T01:09:40.920Z,9.50
2024-04-11T01:12:13.605Z,9.40
2024-04-11T01:14:44.698Z,9.40
2024-04-11T01:17:15.732Z,9.40
2024-04-11T01:19:48.966Z,9.40
2024-04-11T01:22:21.666Z,9.30
2024-04-11T01:24:54.309Z,9.30
2024-04-11T01:27:25.461Z,9.30
2024-04-11T01:29:52.931Z,9.20
2024-04-11T01:32:23.068Z,9.20
2024-04-11T01:34:57.480Z,9.20
2024-04-11T01:37:27.743Z,9.20
2024-04-11T01:40:00.321Z,9.20
2024-04-11T01:42:30.273Z,9.10
2024-04-11T01:44:59.513Z,9.10
2024-04-11T01:47:31.095Z,9.10
2024-04-11T01:49:58.528Z,9.40
2024-04-11T01:52:28.537Z,9.10
2024-04-11T01:55:02.449Z,9.10
2024-04-11T01:57:35.919Z,9.10
2024-04-11T02:00:03.578Z,9.10
2024-04-11T02:02:42.389Z,9.00
2024-04-11T02:05:12.638Z,9.00
2024-04-11T02:07:42.851Z,9.00
2024-04-11T02:10:12.402Z,9.00
2024-04-11T02:12:45.169Z,9.00
2024-04-11T02:15:15.566Z,8.90
2024-04-11T02:17:48.718Z,8.90
2024-04-11T02:20:16.289Z,8.90
2024-04-11T02:22:46.799Z,8.90
2024-04-11T02:25:15.124Z,8.80
2024-04-11T02:27:47.850Z,8.80
2024-04-11T02:30:15.294Z,8.80
2024-04-11T02:32:47.828Z,8.80
2024-04-11T02:35:16.249Z,8.90
2024-04-11T02:37:46.284Z,8.70
2024-04-11T02:40:13.717Z,8.70
2024-04-11T02:42:44.381Z,8.70
2024-04-11T02:45:17.922Z,8.70
2024-04-11T02:47:48.505Z,8.60
2024-04-11T02:50:16.683Z,8.60
2024-04-11T02:52:46.814Z,8.50
2024-04-11T02:55:16.602Z,8.50
2024-04-11T02:57:46.578Z,8.50
2024-04-11T03:00:18.510Z,8.50
2024-04-11T03:02:48.743Z,8.40
2024-04-11T03:05:17.614Z,8.40
2024-04-11T03:07:50.350Z,8.40
2024-04-11T03:10:17.815Z,8.40
2024-04-11T03:12:50.273Z,8.30
2024-04-11T03:15:20.761Z,8.30
2024-04-11T03:17:51.770Z,8.30
2024-04-11T03:20:19.404Z,8.20
2024-04-11T03:22:49.435Z,8.20
2024-04-11T03:25:16.721Z,8.20
2024-04-11T03:27:46.666Z,8.20
2024-04-11T03:30:14.191Z,8.10
2024-04-11T03:32:47.025Z,8.10
2024-04-11T03:35:14.653Z,8.20
2024-04-11T03:37:44.730Z,8.10
2024-04-11T03:40:13.864Z,8.00
2024-04-11T03:42:46.549Z,8.00
2024-04-11T03:45:24.342Z,8.00
2024-04-11T03:47:57.253Z,8.00
2024-04-11T03:53:21.473Z,7.90
2024-04-11T03:56:05.006Z,7.90
2024-04-11T03:58:32.703Z,7.90
2024-04-11T04:01:03.076Z,7.90
2024-04-11T04:03:33.602Z,7.90
2024-04-11T04:06:07.121Z,7.90
2024-04-11T04:08:35.412Z,7.90
2024-04-11T04:11:07.284Z,7.90
2024-04-11T04:13:35.296Z,7.70
2024-04-11T04:16:07.071Z,7.90
2024-04-11T04:18:38.051Z,7.90
2024-04-11T04:21:09.191Z,7.90
2024-04-11T04:23:39.973Z,7.90
2024-04-11T04:26:10.875Z,7.90
2024-04-11T04:28:40.235Z,7.90
2024-04-11T04:31:18.030Z,8.00
2024-04-11T04:33:49.930Z,7.90
2024-04-11T04:36:21.486Z,7.80
2024-04-11T04:38:51.296Z,7.90
2024-04-11T04:41:24.722Z,8.00
2024-04-11T04:43:56.220Z,7.80
2024-04-11T04:46:27.297Z,7.80
2024-04-11T04:49:02.219Z,7.80
2024-04-11T04:51:33.290Z,7.80
2024-04-11T04:54:02.782Z,7.80
2024-04-11T04:56:34.758Z,7.80
2024-04-11T04:59:04.220Z,7.80
2024-04-11T05:01:51.610Z,7.80
2024-04-11T05:04:24.470Z,7.90
2024-04-11T05:07:00.464Z,7.90
2024-04-11T05:09:31.316Z,7.90
2024-04-11T05:12:01.639Z,8.00
2024-04-11T05:14:32.319Z,8.10
2024-04-11T05:17:09.663Z,8.10
2024-04-11T05:19:47.574Z,8.20
2024-04-11T05:22:19.400Z,8.30
2024-04-11T05:24:51.289Z,8.40
2024-04-11T05:27:27.502Z,8.50
2024-04-11T05:30:02.921Z,8.50
2024-04-11T05:32:33.135Z,8.60
2024-04-11T05:35:10.723Z,8.70
2024-04-11T05:38:03.304Z,8.80
2024-04-11T05:40:43.505Z,8.80
2024-04-11T05:43:32.397Z,8.90
2024-04-11T05:46:20.062Z,9.00
2024-04-11T05:49:03.559Z,9.00
2024-04-11T05:51:37.208Z,9.20
2024-04-11T05:54:31.477Z,9.10
2024-04-11T05:59:53.960Z,9.20
2024-04-11T06:02:24.537Z,9.30
2024-04-11T06:05:04.203Z,9.40
2024-04-11T06:07:45.541Z,9.50
2024-04-11T06:10:34.867Z,9.60
2024-04-11T06:13:12.408Z,9.60
2024-04-11T06:18:37.849Z,9.80
2024-04-11T06:21:13.334Z,9.90
2024-04-11T06:23:51.981Z,9.80
2024-04-11T06:26:36.284Z,10.00
2024-04-11T06:29:14.864Z,10.20
2024-04-11T06:31:48.070Z,10.00
2024-04-11T06:34:25.426Z,10.30
2024-04-11T06:37:02.066Z,10.40
2024-04-11T06:39:41.284Z,10.40
2024-04-11T06:42:14.891Z,10.60
2024-04-11T06:44:58.589Z,10.70
2024-04-11T06:47:51.236Z,10.80
2024-04-11T06:50:23.575Z,10.80
2024-04-11T06:53:13.730Z,10.90
2024-04-11T06:55:59.558Z,11.10
2024-04-11T06:58:39.765Z,11.20
2024-04-11T07:01:28.712Z,11.30
2024-04-11T07:04:08.011Z,11.40
2024-04-11T07:07:08.646Z,11.60
2024-04-11T07:09:51.915Z,11.70
2024-04-11T07:12:50.836Z,11.80
2024-04-11T07:15:33.057Z,12.00
2024-04-11T07:18:13.743Z,12.10
2024-04-11T07:20:53.363Z,12.30
2024-04-11T07:23:28.537Z,12.50
2024-04-11T07:26:09.543Z,12.60
2024-04-11T07:28:53.875Z,12.70
2024-04-11T07:31:36.805Z,12.90
2024-04-11T07:34:11.059Z,13.00
2024-04-11T07:36:52.167Z,13.30
2024-04-11T07:39:23.298Z,13.30
2024-04-11T07:45:16.627Z,13.60
2024-04-11T07:48:08.674Z,13.80
2024-04-11T09:59:57.423Z,18.40
2024-04-11T10:09:41.325Z,18.60
2024-04-11T10:12:18.815Z,18.70
2024-04-11T10:38:38.871Z,19.10
2024-04-11T11:23:03.489Z,19.90
2024-04-11T11:30:19.114Z,20.10
2024-04-11T11:58:52.636Z,26.80
2024-04-11T12:12:12.668Z,31.50
2024-04-11T12:15:07.287Z,32.70
2024-04-11T12:20:34.828Z,34.00
2024-04-11T12:23:16.181Z,34.10
2024-04-11T12:26:11.035Z,34.50
2024-04-11T12:38:45.760Z,36.00
2024-04-11T12:41:28.411Z,36.50
2024-04-11T12:44:13.526Z,36.60
2024-04-11T12:51:40.043Z,36.40
2024-04-11T12:54:20.216Z,36.10
2024-04-11T12:57:55.686Z,36.40
2024-04-11T13:12:01.728Z,36.90
2024-04-11T13:27:04.071Z,38.10
2024-04-11T13:29:31.849Z,37.70
2024-04-11T13:32:14.801Z,37.50
2024-04-11T13:35:11.927Z,37.70
2024-04-11T13:38:15.536Z,38.00
2024-04-11T13:41:11.107Z,38.00
2024-04-11T13:44:30.200Z,38.30
2024-04-11T13:47:11.149Z,38.30
2024-04-11T13:50:00.244Z,38.10
2024-04-11T13:53:01.541Z,38.30
2024-04-11T13:58:40.379Z,38.50
2024-04-11T14:07:15.564Z,37.60
2024-04-11T14:10:20.676Z,38.10
2024-04-11T14:13:03.857Z,38.30
2024-04-11T14:18:36.121Z,39.10
2024-04-11T14:21:32.831Z,38.80
2024-04-11T14:31:07.222Z,38.80
2024-04-11T14:34:19.163Z,39.10
2024-04-11T14:44:47.599Z,40.60
2024-04-11T14:51:27.942Z,39.80
2024-04-11T14:54:00.283Z,39.70
2024-04-11T14:56:49.271Z,38.90
2024-04-11T15:00:03.485Z,38.50
2024-04-11T15:06:11.600Z,37.40
2024-04-11T15:09:38.278Z,36.60
2024-04-11T15:12:27.195Z,34.30
2024-04-11T15:16:46.437Z,32.30
2024-04-11T15:19:50.783Z,31.00
2024-04-11T15:22:25.573Z,29.60
2024-04-11T15:35:31.735Z,27.60
2024-04-11T15:38:21.223Z,27.30
2024-04-11T15:40:55.974Z,27.00
2024-04-11T15:43:51.772Z,26.80
2024-04-11T15:46:48.649Z,26.60
2024-04-11T15:50:26.184Z,26.30
2024-04-11T15:53:17.998Z,25.80
2024-04-11T15:56:20.217Z,25.30
2024-04-11T15:59:29.173Z,24.90
2024-04-11T16:02:08.493Z,24.90
2024-04-11T16:05:02.927Z,24.60
2024-04-11T16:07:41.107Z,24.50
2024-04-11T16:10:46.401Z,24.20
2024-04-11T16:13:26.666Z,24.10
2024-04-11T16:16:20.826Z,23.90
2024-04-11T16:19:47.040Z,23.70
2024-04-11T16:22:54.596Z,23.60
2024-04-11T16:26:01.767Z,23.70
2024-04-11T16:34:39.583Z,23.70
2024-04-11T16:39:48.694Z,24.10
2024-04-11T16:51:04.513Z,24.00
2024-04-11T17:00:03.635Z,23.40
2024-04-11T17:06:41.471Z,23.10
2024-04-11T17:12:32.095Z,22.80
2024-04-11T17:15:26.771Z,22.60
2024-04-11T17:18:26.513Z,22.40
2024-04-11T17:21:19.929Z,22.20
2024-04-11T17:24:03.137Z,22.10
2024-04-11T17:26:53.424Z,21.90
2024-04-11T17:29:53.063Z,21.80
2024-04-11T17:32:46.822Z,21.60
2024-04-11T17:35:47.588Z,21.50
2024-04-11T17:38:44.971Z,21.40
2024-04-11T17:41:45.869Z,21.30
2024-04-11T17:51:06.837Z,21.00
2024-04-11T17:54:52.616Z,20.60
2024-04-11T18:00:58.185Z,20.50
2024-04-11T18:03:54.690Z,20.30
2024-04-11T18:07:07.375Z,20.20
2024-04-11T18:10:00.155Z,20.20
2024-04-11T18:13:05.626Z,20.00
2024-04-11T18:20:07.778Z,19.90
2024-04-11T18:23:17.648Z,19.80
2024-04-11T18:28:52.935Z,19.60
2024-04-11T18:31:59.821Z,19.50
2024-04-11T18:36:01.919Z,19.60
2024-04-11T18:39:39.637Z,19.40
2024-04-11T18:45:40.180Z,19.30
2024-04-11T18:49:15.114Z,19.30
2024-04-11T19:10:41.107Z,18.90
2024-04-11T19:13:47.399Z,18.80
2024-04-11T19:16:44.513Z,18.90
2024-04-11T19:19:36.438Z,18.80
2024-04-11T19:26:18.329Z,18.70
2024-04-11T19:28:59.275Z,18.70
2024-04-11T19:42:22.680Z,18.40
2024-04-11T19:45:04.027Z,18.50
2024-04-11T19:47:59.388Z,18.60
2024-04-11T19:54:33.353Z,18.50
2024-04-11T19:57:31.667Z,18.50
2024-04-11T20:01:04.093Z,18.50
